BIENTÔT MET'MAP
version 2.0 !

Prévue avant fin octobre,
la nouvelle version sera
plus belle, plus complète
et hébergée sur un serveur
3 fois plus puissant...
et toujours gratuite !


Pas compatible ?
Essayez la version Mobile !

SE CONNECTER : | S'inscrire | Disclaimer | Découvrir Orbifly |
Code OACI :
LŽgende : VFR VFR Marginal IFR IFR Intensif IFR TrŽs Intensif
Visi :
Plafond :
>= 8 km
>= 3000ft
5 ˆ 8 km
1000 ˆ 3000 ft
1500m ˆ 5 km
500 ˆ 1000 ft
800 ˆ 1500m
200 ˆ 500 ft
< 800m
< 200 ft

METAR - DABB Annaba-Rabah Bitat - 17 Sep 2019 06:41 UTC - Data Source NOAA   



- Altitude de l'aérodrome : 16 ft
- Code IATA : AAE
- Pas de NOTAMs connus.


DABB - Annaba-Rabah Bitat

Dernier METAR connu : 2015/08/11 08:00 DABB 110800Z 35003KT 9999 FEW026TCU SCT040 29/22 Q1013
TAF AMD TAF DABB
Valide du 16 à 22h jusqu'au 17 à 18h UTC


162234Z 1622/1718 VRB02KT 3000 BR SCT015
PROB40
TEMPO 1700/1704 0800 FG BKN008
BECMG 1704/1706 30010KT 6000 NSW
PROB40
TEMPO 1706/1712 5000 TSRA FEW023TCU FEW026CB
BECMG 1707/1710 36010KT

Source NOAA


MET'MAP, la Météo Aéronautique d'un coup d'oeil ! - Copyright ORBIFLY Décembre 2007

Développement & Programmation : Alexandra Zaïnal
Co-Développement : Marc-Olivier Méhu
Soutien technique & logistique : Manuel Goepfert
Conception & Financement : Baudouin d'Aumeries